createdAt,value
2023-05-02T00:00:10.420Z,12918.0771
2023-05-02T00:01:11.821Z,12919.0771
2023-05-02T00:02:13.231Z,12918.3848
2023-05-02T00:03:14.666Z,12920.6924
2023-05-02T00:04:16.137Z,12917.1543
2023-05-02T00:05:17.457Z,12916.2305
2023-05-02T00:06:18.948Z,12917.8457
2023-05-02T00:07:20.349Z,12916.8457
2023-05-02T00:08:21.718Z,12913.6152
2023-05-02T00:09:23.290Z,12913.6924
2023-05-02T00:10:24.643Z,12914.5381
2023-05-02T00:11:26.143Z,12918.3848
2023-05-02T00:12:27.402Z,12916.2305
2023-05-02T00:13:28.913Z,12916.2305
2023-05-02T00:14:30.309Z,12915.6924
2023-05-02T00:15:31.780Z,12915.1543
2023-05-02T00:16:33.302Z,12913.7695
2023-05-02T00:17:34.690Z,12918.8457
2023-05-02T00:18:36.025Z,12917.5381
2023-05-02T00:19:37.447Z,12919.8457
2023-05-02T00:20:38.966Z,12921.4619
2023-05-02T00:21:40.326Z,12914.9229
2023-05-02T00:22:41.672Z,12918.3076
2023-05-02T00:23:43.118Z,12920.0771
2023-05-02T00:24:44.518Z,12922.6152
2023-05-02T00:25:46.007Z,12923.8457
2023-05-02T00:26:47.463Z,12924.2305
2023-05-02T00:27:48.797Z,12917.7695
2023-05-02T00:28:50.145Z,12918.8457
2023-05-02T00:29:51.671Z,12923.1543
2023-05-02T00:30:53.090Z,12924.0771
2023-05-02T00:31:54.569Z,12923.6924
2023-05-02T00:32:55.973Z,12929.6924
2023-05-02T00:33:57.390Z,12928.3076
2023-05-02T00:34:58.766Z,12927.5381
2023-05-02T00:36:00.210Z,12927.3848
2023-05-02T00:37:01.600Z,12932.5381
2023-05-02T00:38:03.102Z,12929.8457
2023-05-02T00:39:04.409Z,12931.5381
2023-05-02T00:40:05.889Z,12915.9229
2023-05-02T00:41:07.237Z,12909.9229
2023-05-02T00:42:08.694Z,12918.0000
2023-05-02T00:43:10.098Z,12913.6924
2023-05-02T00:44:11.537Z,12910.0000
2023-05-02T00:45:12.920Z,12913.7695
2023-05-02T00:46:14.374Z,12916.8457
2023-05-02T00:47:15.793Z,12917.4619
2023-05-02T00:48:17.205Z,12920.9229
2023-05-02T00:49:18.541Z,12915.2305
2023-05-02T00:50:20.036Z,12916.6152
2023-05-02T00:51:21.418Z,12919.1543
2023-05-02T00:52:22.931Z,12918.0000
2023-05-02T00:53:24.264Z,12918.8457
2023-05-02T00:54:25.726Z,12914.9229
2023-05-02T00:55:27.103Z,12913.0000
2023-05-02T00:56:28.545Z,12914.5381
2023-05-02T00:57:30.006Z,12920.3076
2023-05-02T00:58:31.418Z,12919.0000
2023-05-02T00:59:32.798Z,12918.0000
2023-05-02T01:00:34.246Z,12919.1543
2023-05-02T01:01:35.576Z,12920.6152
2023-05-02T01:02:37.279Z,12918.2305
2023-05-02T01:03:38.590Z,12922.4619
2023-05-02T01:04:39.980Z,12924.8457
2023-05-02T01:05:41.329Z,12923.1543
2023-05-02T01:06:42.898Z,12925.1543
2023-05-02T01:07:44.179Z,12913.0771
2023-05-02T01:08:45.600Z,12921.3848
2023-05-02T01:09:46.991Z,12922.7695
2023-05-02T01:10:48.416Z,12919.5381
2023-05-02T01:11:49.820Z,12921.8457
2023-05-02T01:12:51.307Z,12923.3076
2023-05-02T01:13:52.662Z,12920.9229
2023-05-02T01:14:54.134Z,12918.8457
2023-05-02T01:15:55.506Z,12919.7695
2023-05-02T01:16:56.996Z,12919.3076
2023-05-02T01:17:58.499Z,12923.5381
2023-05-02T01:18:59.818Z,12922.8457
2023-05-02T01:20:01.331Z,12917.9229
2023-05-02T01:21:02.657Z,12921.6924
2023-05-02T01:22:04.066Z,12922.7695
2023-05-02T01:23:05.456Z,12923.6924
2023-05-02T01:24:06.863Z,12921.8457
2023-05-02T01:25:08.178Z,12915.7695
2023-05-02T01:26:09.715Z,12926.3848
2023-05-02T01:27:11.105Z,12920.7695
2023-05-02T01:28:12.595Z,12922.6152
2023-05-02T01:29:13.859Z,12923.3848
2023-05-02T01:30:15.400Z,12930.3076
2023-05-02T01:31:16.826Z,12931.3076
2023-05-02T01:32:18.250Z,12924.6924
2023-05-02T01:33:19.684Z,12921.1543
2023-05-02T01:34:21.091Z,12919.6924
2023-05-02T01:35:22.402Z,12925.3076
2023-05-02T01:36:23.943Z,12919.0771
2023-05-02T01:37:25.328Z,12919.3848
2023-05-02T01:38:26.842Z,12921.6924
2023-05-02T01:39:28.122Z,12919.5381
2023-05-02T01:40:29.585Z,12921.0000
2023-05-02T01:41:30.974Z,12917.6152
2023-05-02T01:42:32.423Z,12923.7695
2023-05-02T01:43:33.834Z,12926.6152
2023-05-02T01:44:35.260Z,12925.6924
2023-05-02T01:45:36.621Z,12925.5381
2023-05-02T01:46:38.176Z,12919.3076
2023-05-02T01:47:39.509Z,12921.8457
2023-05-02T01:48:40.975Z,12906.0771
2023-05-02T01:49:42.342Z,12915.8457
2023-05-02T01:50:43.800Z,12924.5381
2023-05-02T01:51:45.117Z,12925.9229
2023-05-02T01:52:46.641Z,12925.7695
2023-05-02T01:53:48.094Z,12914.3848
2023-05-02T01:54:49.469Z,12917.2305
2023-05-02T01:55:50.844Z,12914.4619
2023-05-02T01:56:52.310Z,12915.7695
2023-05-02T01:57:53.693Z,12912.7695
2023-05-02T01:58:55.190Z,12924.8457
2023-05-02T01:59:56.580Z,12921.6152
2023-05-02T02:00:58.022Z,12924.2305
2023-05-02T02:01:59.362Z,12912.4619
2023-05-02T02:03:00.808Z,12916.6924
2023-05-02T02:04:02.339Z,12905.9229
2023-05-02T02:05:03.699Z,12928.0000
2023-05-02T02:06:05.127Z,12943.0000
2023-05-02T02:07:06.650Z,12939.4619
2023-05-02T02:08:07.948Z,12933.7695
2023-05-02T02:09:09.462Z,12929.7695
2023-05-02T02:10:10.788Z,12925.3848
2023-05-02T02:11:12.235Z,12925.7695
2023-05-02T02:12:13.652Z,12920.8457
2023-05-02T02:13:15.147Z,12919.5381
2023-05-02T02:14:16.499Z,12921.8457
2023-05-02T02:15:17.968Z,12920.6152
2023-05-02T02:16:19.400Z,12918.2305
2023-05-02T02:17:20.762Z,12913.3076
2023-05-02T02:18:22.159Z,12917.2305
2023-05-02T02:19:23.664Z,12911.8457
2023-05-02T02:20:25.068Z,12911.4619
2023-05-02T02:21:26.434Z,12909.7695
2023-05-02T02:22:27.852Z,12914.8457
2023-05-02T02:23:29.341Z,12910.5381
2023-05-02T02:24:30.738Z,12906.3848
2023-05-02T02:25:32.173Z,12903.8457
2023-05-02T02:26:33.530Z,12906.3848
2023-05-02T02:27:34.986Z,12905.0000
2023-05-02T02:28:36.431Z,12906.4619
2023-05-02T02:29:37.875Z,12901.8457
2023-05-02T02:30:39.379Z,12898.6924
2023-05-02T02:31:40.657Z,12899.0771
2023-05-02T02:32:42.146Z,12898.8457
2023-05-02T02:33:43.496Z,12894.0000
2023-05-02T02:34:45.056Z,12896.2305
2023-05-02T02:35:46.389Z,12904.5381
2023-05-02T02:36:47.804Z,12900.1543
2023-05-02T02:37:49.185Z,12902.3076
2023-05-02T02:38:50.652Z,12899.8457
2023-05-02T02:39:52.107Z,12888.6924
2023-05-02T02:40:53.514Z,12896.6924
2023-05-02T02:41:54.902Z,12896.8457
2023-05-02T02:42:56.338Z,12894.6924
2023-05-02T02:43:57.805Z,12899.2305
2023-05-02T02:44:59.174Z,12893.5381
2023-05-02T02:46:00.729Z,12895.0000
2023-05-02T02:47:02.000Z,12888.7695
2023-05-02T02:48:03.492Z,12895.6152
2023-05-02T02:49:04.872Z,12896.4619
2023-05-02T02:50:06.365Z,12895.0771
2023-05-02T02:51:07.772Z,12895.8457
2023-05-02T02:52:09.135Z,12893.6152
2023-05-02T02:53:10.511Z,12896.9229
2023-05-02T02:54:25.411Z,12888.3848
2023-05-02T02:55:13.423Z,12884.5830
2023-05-02T02:56:14.899Z,12887.0771
2023-05-02T02:57:16.224Z,12883.1543
2023-05-02T02:58:17.626Z,12889.0771
2023-05-02T02:59:19.067Z,12888.7695
2023-05-02T03:00:20.604Z,12889.7695
2023-05-02T03:01:21.975Z,12884.3076
2023-05-02T03:02:23.386Z,12886.7695
2023-05-02T03:03:24.872Z,12886.6152
2023-05-02T03:04:26.186Z,12883.2305
2023-05-02T03:05:27.679Z,12892.1543
2023-05-02T03:06:29.187Z,12892.4619
2023-05-02T03:07:30.493Z,12893.3076
2023-05-02T03:08:31.905Z,12895.0000
2023-05-02T03:09:33.316Z,12896.3848
2023-05-02T03:10:34.868Z,12894.3848
2023-05-02T03:11:36.192Z,12890.2305
2023-05-02T03:12:37.653Z,12885.3076
2023-05-02T03:13:39.003Z,12895.4619
2023-05-02T03:14:40.508Z,12886.6152
2023-05-02T03:15:41.919Z,12891.4619
2023-05-02T03:16:43.420Z,12889.8457
2023-05-02T03:17:44.821Z,12888.8457
2023-05-02T03:18:46.229Z,12885.2305
2023-05-02T03:19:47.584Z,12891.1543
2023-05-02T03:20:48.959Z,12890.1543
2023-05-02T03:21:50.504Z,12895.2305
2023-05-02T03:22:51.896Z,12891.3848
2023-05-02T03:23:53.264Z,12882.6152
2023-05-02T03:24:54.687Z,12886.2305
2023-05-02T03:25:56.072Z,12882.9229
2023-05-02T03:26:57.568Z,12887.1543
2023-05-02T03:27:58.953Z,12884.0000
2023-05-02T03:29:00.364Z,12884.3848
2023-05-02T03:30:02.084Z,12885.0771
2023-05-02T03:31:03.260Z,12888.2305
2023-05-02T03:32:04.750Z,12878.7695
2023-05-02T03:33:06.100Z,12879.3076
2023-05-02T03:34:07.513Z,12883.6152
2023-05-02T03:35:08.913Z,12887.8457
2023-05-02T03:36:10.338Z,12893.9229
2023-05-02T03:37:11.759Z,12895.4619
2023-05-02T03:38:13.287Z,12887.4619
2023-05-02T03:39:14.594Z,12896.6924
2023-05-02T03:40:16.052Z,12882.5381
2023-05-02T03:41:17.346Z,12883.2305
2023-05-02T03:42:18.910Z,12889.9229
2023-05-02T03:43:20.332Z,12884.4619
2023-05-02T03:44:21.781Z,12887.2305
2023-05-02T03:45:23.152Z,12889.8457
2023-05-02T03:46:24.617Z,12890.9229
2023-05-02T03:47:26.032Z,12891.4619
2023-05-02T03:48:27.496Z,12891.4619
2023-05-02T03:49:28.805Z,12878.3076
2023-05-02T03:50:30.294Z,12885.6924
2023-05-02T03:51:31.604Z,12888.0771
2023-05-02T03:52:33.125Z,12882.7695
2023-05-02T03:53:34.562Z,12890.2305
2023-05-02T03:54:36.040Z,12882.6152
2023-05-02T03:55:37.405Z,12886.0000
2023-05-02T03:56:40.202Z,12886.6924
2023-05-02T03:57:40.259Z,12892.5381
2023-05-02T03:58:41.721Z,12894.2305
2023-05-02T03:59:43.160Z,12883.4619
2023-05-02T04:00:44.552Z,12887.0771
2023-05-02T04:01:45.969Z,12883.9229
2023-05-02T04:02:47.495Z,12886.5381
2023-05-02T04:03:48.900Z,12879.1543
2023-05-02T04:04:50.287Z,12888.3848
2023-05-02T04:05:51.676Z,12888.7695
2023-05-02T04:06:53.185Z,12891.3076
2023-05-02T04:07:54.469Z,12885.6152
2023-05-02T04:08:56.001Z,12886.8457
2023-05-02T04:09:57.439Z,12886.6924
2023-05-02T04:10:58.748Z,12881.0000
2023-05-02T04:12:00.256Z,12888.7695
2023-05-02T04:13:01.716Z,12882.3076
2023-05-02T04:14:03.164Z,12887.3848
2023-05-02T04:15:04.615Z,12888.8457
2023-05-02T04:16:05.982Z,12896.8457
2023-05-02T04:17:07.543Z,12897.6152
2023-05-02T04:18:08.891Z,12898.3076
2023-05-02T04:19:10.829Z,12901.0000
2023-05-02T04:20:11.696Z,12898.4619
2023-05-02T04:21:13.073Z,12896.5381
2023-05-02T04:22:14.478Z,12895.1543
2023-05-02T04:23:15.922Z,12895.6924
2023-05-02T04:24:17.389Z,12894.1543
2023-05-02T04:25:18.867Z,12902.1543
2023-05-02T04:26:20.108Z,12918.9229
2023-05-02T04:27:21.622Z,12919.8457
2023-05-02T04:28:23.113Z,12922.9229
2023-05-02T04:29:24.506Z,12912.8457
2023-05-02T04:30:25.932Z,12899.0000
2023-05-02T04:31:27.406Z,12906.7695
2023-05-02T04:32:28.802Z,12897.7695
2023-05-02T04:33:30.120Z,12902.2305
2023-05-02T04:34:31.591Z,12906.6924
2023-05-02T04:35:32.987Z,12905.7695
2023-05-02T04:36:34.390Z,12901.5381
2023-05-02T04:37:35.783Z,12901.1543
2023-05-02T04:38:37.224Z,12901.3076
2023-05-02T04:39:38.613Z,12901.5381
2023-05-02T04:40:40.120Z,12900.6924
2023-05-02T04:41:41.486Z,12902.0000
2023-05-02T04:42:42.925Z,12902.0771
2023-05-02T04:43:44.358Z,12905.1543
2023-05-02T04:44:45.814Z,12898.0771
2023-05-02T04:45:47.112Z,12900.6152
2023-05-02T04:46:48.613Z,12902.9229
2023-05-02T04:47:50.028Z,12900.7695
2023-05-02T04:48:51.472Z,12899.0000
2023-05-02T04:49:52.875Z,12904.5381
2023-05-02T04:50:54.403Z,12903.7695
2023-05-02T04:51:55.733Z,12902.3076
2023-05-02T04:52:57.121Z,12902.2305
2023-05-02T04:53:58.523Z,12906.4619
2023-05-02T04:55:00.001Z,12900.6152
2023-05-02T04:56:01.351Z,12907.5381
2023-05-02T04:57:02.792Z,12906.8457
2023-05-02T04:58:04.173Z,12907.0771
2023-05-02T04:59:05.617Z,12907.1543
2023-05-02T05:00:07.042Z,12902.3076
2023-05-02T05:01:08.557Z,12891.0771
2023-05-02T05:02:09.991Z,12880.3848
2023-05-02T05:03:11.383Z,12879.6924
2023-05-02T05:04:12.810Z,12881.5381
2023-05-02T05:05:14.215Z,13061.0000
2023-05-02T05:06:15.676Z,13273.8457
2023-05-02T05:07:17.003Z,13387.0771
2023-05-02T05:08:18.366Z,13556.0000
2023-05-02T05:09:19.881Z,13622.9229
2023-05-02T05:10:21.203Z,13636.6152
2023-05-02T05:11:23.375Z,13582.6152
2023-05-02T05:12:24.095Z,13548.3076
2023-05-02T05:13:25.479Z,13379.1543
2023-05-02T05:14:26.902Z,13389.4619
2023-05-02T05:15:28.322Z,13406.1543
2023-05-02T05:16:29.841Z,13385.2305
2023-05-02T05:17:31.240Z,13376.2305
2023-05-02T05:18:32.589Z,13375.1543
2023-05-02T05:19:34.010Z,13367.5381
2023-05-02T05:20:35.480Z,13355.0771
2023-05-02T05:21:36.892Z,13349.0000
2023-05-02T05:22:38.284Z,13315.3848
2023-05-02T05:23:39.630Z,13292.3848
2023-05-02T05:24:41.080Z,13261.1543
2023-05-02T05:25:44.249Z,13238.7695
2023-05-02T05:26:43.949Z,13206.0771
2023-05-02T05:27:45.355Z,13194.1543
2023-05-02T05:28:46.759Z,13177.8457
2023-05-02T05:29:48.072Z,13141.4619
2023-05-02T05:30:49.621Z,13120.6924
2023-05-02T05:31:51.074Z,13101.3848
2023-05-02T05:32:52.437Z,13097.0771
2023-05-02T05:33:53.883Z,13070.1543
2023-05-02T05:34:55.281Z,13067.9229
2023-05-02T05:35:56.712Z,13072.6924
2023-05-02T05:36:58.104Z,13051.7695
2023-05-02T05:37:59.564Z,13055.4619
2023-05-02T05:39:00.921Z,13059.6152
2023-05-02T05:40:02.899Z,13064.7695
2023-05-02T05:41:03.759Z,13067.6152
2023-05-02T05:42:05.264Z,13055.3076
2023-05-02T05:43:06.688Z,13071.4619
2023-05-02T05:44:08.077Z,13082.6152
2023-05-02T05:45:09.445Z,13085.6924
2023-05-02T05:46:10.881Z,13065.4619
2023-05-02T05:47:12.490Z,13061.6924
2023-05-02T05:48:13.846Z,13051.6924
2023-05-02T05:49:15.144Z,13047.5381
2023-05-02T05:50:16.623Z,13053.0771
2023-05-02T05:51:17.989Z,13042.3848
2023-05-02T05:52:19.525Z,13040.1543
2023-05-02T05:53:20.896Z,13038.3076
2023-05-02T05:54:22.298Z,13035.4619
2023-05-02T05:55:23.656Z,13025.4619
2023-05-02T05:56:25.100Z,13014.7695
2023-05-02T05:57:26.529Z,13022.7695
2023-05-02T05:58:27.979Z,13017.6924
2023-05-02T05:59:29.328Z,13007.6152
2023-05-02T06:00:30.777Z,13007.3848
2023-05-02T06:01:32.156Z,12994.5381
2023-05-02T06:02:33.734Z,12984.4619
2023-05-02T06:03:35.222Z,12983.4619
2023-05-02T06:04:36.527Z,12979.0771
2023-05-02T06:05:37.851Z,12979.7695
2023-05-02T06:06:39.361Z,12975.8457
2023-05-02T06:07:40.725Z,12984.1543
2023-05-02T06:08:42.160Z,12977.5381
2023-05-02T06:09:43.597Z,12984.9229
2023-05-02T06:10:44.986Z,12980.6152
2023-05-02T06:11:46.303Z,12976.3076
2023-05-02T06:12:49.255Z,12974.5381
2023-05-02T06:13:49.272Z,12978.5381
2023-05-02T06:14:50.705Z,12981.6924
2023-05-02T06:15:52.061Z,12975.9229
2023-05-02T06:16:53.468Z,12973.4619
2023-05-02T06:17:55.009Z,12976.1543
2023-05-02T06:18:56.364Z,12974.7695
2023-05-02T06:19:58.081Z,12976.7695
2023-05-02T06:20:59.118Z,12976.3848
2023-05-02T06:22:00.602Z,12981.1543
2023-05-02T06:23:02.059Z,12972.6924
2023-05-02T06:24:03.504Z,12973.4619
2023-05-02T06:25:04.900Z,12970.3848
2023-05-02T06:26:06.307Z,12975.0771
2023-05-02T06:27:07.723Z,12978.2305
2023-05-02T06:28:09.135Z,12978.2305
2023-05-02T06:29:10.601Z,12981.3848
2023-05-02T06:30:11.921Z,12970.6152
2023-05-02T06:31:13.477Z,12967.6924
2023-05-02T06:32:14.769Z,12950.3848
2023-05-02T06:33:16.293Z,12955.7695
2023-05-02T06:34:17.689Z,12947.9229
2023-05-02T06:35:19.094Z,12943.9229
2023-05-02T06:36:20.472Z,12937.6924
2023-05-02T06:37:21.864Z,12929.6924
2023-05-02T06:38:23.368Z,12923.5381
2023-05-02T06:39:24.766Z,12930.3848
2023-05-02T06:40:26.205Z,12917.0771
2023-05-02T06:41:27.612Z,12915.2305
2023-05-02T06:42:29.045Z,12918.3076
2023-05-02T06:43:30.480Z,12919.0771
2023-05-02T06:44:31.910Z,12917.3076
2023-05-02T06:45:33.265Z,12917.8457
2023-05-02T06:46:34.769Z,12917.9229
2023-05-02T06:47:36.163Z,12921.1543
2023-05-02T06:48:37.593Z,12916.8457
2023-05-02T06:49:39.025Z,12921.0771
2023-05-02T06:50:40.448Z,12923.3848
2023-05-02T06:51:41.817Z,12919.9229
2023-05-02T06:52:43.252Z,12928.0771
2023-05-02T06:53:44.686Z,12930.0000
2023-05-02T06:54:46.212Z,12932.0771
2023-05-02T06:55:47.509Z,12939.2305
2023-05-02T06:56:48.874Z,12937.5381
2023-05-02T06:57:50.372Z,12940.6152
2023-05-02T06:58:51.848Z,12920.7695
2023-05-02T06:59:53.555Z,12940.3848
2023-05-02T07:00:54.742Z,12943.5381
2023-05-02T07:01:56.038Z,12952.3076
2023-05-02T07:02:57.574Z,12939.0771
2023-05-02T07:03:58.927Z,12933.5381
2023-05-02T07:05:00.334Z,12940.3076
2023-05-02T07:06:01.715Z,12932.0000
2023-05-02T07:07:03.144Z,12879.1543
2023-05-02T07:08:04.530Z,12864.3848
2023-05-02T07:09:06.026Z,12871.2305
2023-05-02T07:10:07.398Z,12877.4619
2023-05-02T07:11:08.872Z,12889.9229
2023-05-02T07:12:10.213Z,12891.9229
2023-05-02T07:13:11.688Z,12892.9229
2023-05-02T07:14:13.026Z,12895.6152
2023-05-02T07:15:14.550Z,12899.2305
2023-05-02T07:16:15.864Z,12907.2305
2023-05-02T07:17:17.359Z,12897.6152
2023-05-02T07:18:18.830Z,12912.1543
2023-05-02T07:19:20.250Z,12909.7695
2023-05-02T07:20:21.698Z,12913.9229
2023-05-02T07:21:23.052Z,12917.6152
2023-05-02T07:22:24.470Z,12903.5381
2023-05-02T07:23:25.845Z,12906.6924
2023-05-02T07:24:27.307Z,12923.7695
2023-05-02T07:25:28.735Z,12904.8457
2023-05-02T07:26:30.173Z,12890.4619
2023-05-02T07:27:31.560Z,12883.5381
2023-05-02T07:28:33.001Z,12895.4619
2023-05-02T07:29:34.412Z,12886.0771
2023-05-02T07:30:35.857Z,12896.2305
2023-05-02T07:31:37.237Z,12884.6924
2023-05-02T07:32:38.681Z,12881.9229
2023-05-02T07:33:40.047Z,12878.5381
2023-05-02T07:34:41.406Z,12879.4619
2023-05-02T07:35:42.980Z,12893.6924
2023-05-02T07:36:44.364Z,12885.3848
2023-05-02T07:37:45.713Z,12878.1543
2023-05-02T07:38:47.199Z,12874.8457
2023-05-02T07:39:48.553Z,12888.1543
2023-05-02T07:40:50.053Z,12886.0771
2023-05-02T07:41:51.456Z,12898.7695
2023-05-02T07:42:52.849Z,12910.0000
2023-05-02T07:43:54.234Z,12894.2305
2023-05-02T07:44:55.689Z,12881.4619
2023-05-02T07:45:57.172Z,12885.6152
2023-05-02T07:46:58.584Z,12885.3848
2023-05-02T07:47:59.957Z,12893.3848
2023-05-02T07:49:01.379Z,12891.0771
2023-05-02T07:50:03.006Z,12892.1543
2023-05-02T07:51:04.289Z,12902.0771
2023-05-02T07:52:05.693Z,12900.2305
2023-05-02T07:53:07.077Z,12900.6152
2023-05-02T07:54:08.480Z,12908.7695
2023-05-02T07:55:09.944Z,12906.0000
2023-05-02T07:56:11.388Z,12900.8457
2023-05-02T07:57:12.807Z,12907.1543
2023-05-02T07:58:14.193Z,12905.7695
2023-05-02T07:59:15.610Z,12908.9229
2023-05-02T08:00:17.017Z,12914.2305
2023-05-02T08:01:18.543Z,12913.0771
2023-05-02T08:02:20.034Z,12911.3848
2023-05-02T08:03:21.451Z,12896.4619
2023-05-02T08:04:22.896Z,12901.3076
2023-05-02T08:05:24.165Z,12905.9229
2023-05-02T08:06:25.689Z,12910.2305
2023-05-02T08:07:27.046Z,12921.6152
2023-05-02T08:08:28.373Z,12913.3848
2023-05-02T08:09:29.845Z,12918.6924
2023-05-02T08:10:31.257Z,12923.0771
2023-05-02T08:11:32.677Z,12916.0771
2023-05-02T08:12:34.180Z,12919.6924
2023-05-02T08:13:35.640Z,12916.3076
2023-05-02T08:14:36.912Z,12923.3848
2023-05-02T08:15:38.585Z,12928.5381
2023-05-02T08:16:40.040Z,12925.8457
2023-05-02T08:17:41.355Z,12928.8457
2023-05-02T08:18:42.674Z,12931.4619
2023-05-02T08:19:44.065Z,12922.6924
2023-05-02T08:20:45.514Z,12918.6924
2023-05-02T08:21:46.960Z,12910.7695
2023-05-02T08:22:48.397Z,12909.0000
2023-05-02T08:23:49.799Z,12910.0771
2023-05-02T08:24:51.175Z,12903.7695
2023-05-02T08:25:52.616Z,12904.5381
2023-05-02T08:26:54.074Z,12901.3848
2023-05-02T08:27:55.493Z,12912.1543
2023-05-02T08:28:56.917Z,12932.7695
2023-05-02T08:30:00.658Z,12929.1543
2023-05-02T08:30:59.697Z,12938.6152
2023-05-02T08:32:01.280Z,12938.2305
2023-05-02T08:33:02.618Z,12920.3076
2023-05-02T08:34:04.009Z,12930.2305
2023-05-02T08:35:05.424Z,12931.2305
2023-05-02T08:36:06.852Z,12901.0771
2023-05-02T08:37:08.299Z,12890.1543
2023-05-02T08:38:09.732Z,12876.0000
2023-05-02T08:39:11.093Z,12882.3076
2023-05-02T08:40:12.550Z,12890.3848
2023-05-02T08:41:13.958Z,12897.1543
2023-05-02T08:42:15.359Z,12897.9229
2023-05-02T08:43:16.797Z,12904.6152
2023-05-02T08:44:18.207Z,12906.2305
2023-05-02T08:45:19.555Z,12905.3848
2023-05-02T08:46:21.011Z,12908.9229
2023-05-02T08:47:22.617Z,12911.0000
2023-05-02T08:48:23.953Z,12908.1543
2023-05-02T08:49:25.323Z,12935.1543
2023-05-02T08:50:26.772Z,12936.7695
2023-05-02T08:51:28.088Z,12943.4619
2023-05-02T08:52:29.506Z,12942.5381
2023-05-02T08:53:31.027Z,12945.9229
2023-05-02T08:54:32.422Z,12954.4619
2023-05-02T08:55:33.748Z,12954.7695
2023-05-02T08:56:35.205Z,12937.0000
2023-05-02T08:57:36.668Z,12940.8457
2023-05-02T08:58:38.154Z,12934.2305
2023-05-02T08:59:39.546Z,12935.6924
2023-05-02T09:00:40.991Z,12935.2305
2023-05-02T09:01:42.371Z,12928.8457
2023-05-02T09:02:43.865Z,12927.9229
2023-05-02T09:03:45.205Z,12933.7695
2023-05-02T09:04:46.769Z,12933.0000
2023-05-02T09:05:47.999Z,12934.7695
2023-05-02T09:06:49.499Z,12930.1543
2023-05-02T09:07:50.832Z,12935.6152
2023-05-02T09:08:52.276Z,12939.0000
2023-05-02T09:09:53.729Z,12936.9229
2023-05-02T09:10:55.213Z,12935.5381
2023-05-02T09:11:56.475Z,12939.6152
2023-05-02T09:12:57.981Z,12936.6152
2023-05-02T09:13:59.388Z,12934.6152
2023-05-02T09:15:01.033Z,12935.0000
2023-05-02T09:16:02.208Z,12932.7695
2023-05-02T09:17:03.844Z,12937.1543
2023-05-02T09:18:05.151Z,12943.8457
2023-05-02T09:19:06.497Z,12944.7695
2023-05-02T09:20:07.913Z,12943.0000
2023-05-02T09:21:09.379Z,12946.8457
2023-05-02T09:22:10.791Z,12945.0771
2023-05-02T09:23:12.249Z,12944.3076
2023-05-02T09:24:13.677Z,12947.5381
2023-05-02T09:25:15.098Z,12942.0000
2023-05-02T09:26:16.464Z,12943.2305
2023-05-02T09:27:17.900Z,12943.3076
2023-05-02T09:28:19.270Z,12945.9229
2023-05-02T09:29:20.714Z,12946.8457
2023-05-02T09:30:22.235Z,12946.4619
2023-05-02T09:32:24.987Z,12951.8457
2023-05-02T09:33:26.467Z,12943.9229
2023-05-02T09:34:27.825Z,12953.0000
2023-05-02T09:35:29.326Z,12952.0000
2023-05-02T09:36:30.727Z,12951.2305
2023-05-02T09:37:32.182Z,12949.7695
2023-05-02T09:38:33.529Z,12951.8457
2023-05-02T09:39:34.973Z,12957.5381
2023-05-02T09:40:36.399Z,12953.9229
2023-05-02T09:41:37.858Z,12948.0771
2023-05-02T09:42:39.230Z,12914.0771
2023-05-02T09:43:40.683Z,12905.5381
2023-05-02T09:44:42.061Z,12919.1543
2023-05-02T09:45:43.592Z,12929.6152
2023-05-02T09:46:45.034Z,12934.3848
2023-05-02T09:47:46.361Z,12945.5381
2023-05-02T09:48:47.776Z,12953.4619
2023-05-02T09:49:49.241Z,12952.3848
2023-05-02T09:50:50.691Z,12949.5381
2023-05-02T09:51:52.153Z,12954.1543
2023-05-02T09:52:53.499Z,12947.0771
2023-05-02T09:53:54.984Z,12941.7695
2023-05-02T09:54:56.363Z,12944.6152
2023-05-02T09:55:57.840Z,12948.7695
2023-05-02T09:56:59.225Z,12945.3848
2023-05-02T09:58:00.594Z,12950.6152
2023-05-02T09:59:02.050Z,12948.2305
2023-05-02T10:00:03.756Z,12944.5381
2023-05-02T10:01:05.002Z,12942.2305
2023-05-02T10:02:06.323Z,12944.9229
2023-05-02T10:03:07.823Z,12947.5381
2023-05-02T10:04:09.658Z,12951.1543
2023-05-02T10:05:10.615Z,12947.3848
2023-05-02T10:06:12.158Z,12949.5381
2023-05-02T10:07:13.568Z,12949.2305
2023-05-02T10:08:14.902Z,12947.1543
2023-05-02T10:09:19.783Z,12951.0000
2023-05-02T10:10:17.707Z,12951.0830
2023-05-02T10:11:19.242Z,12948.0771
2023-05-02T10:12:20.570Z,12949.6152
2023-05-02T10:13:21.988Z,12950.5381
2023-05-02T10:14:23.402Z,12953.2305
2023-05-02T10:15:24.820Z,12950.0771
2023-05-02T10:16:26.282Z,12950.1543
2023-05-02T10:17:27.730Z,12952.2305
2023-05-02T10:18:29.097Z,12959.3848
2023-05-02T10:19:30.492Z,12958.7695
2023-05-02T10:20:31.970Z,12958.6152
2023-05-02T10:21:33.429Z,12957.9229
2023-05-02T10:22:34.835Z,12955.2305
2023-05-02T10:23:36.142Z,12956.3848
2023-05-02T10:24:37.645Z,12952.6924
2023-05-02T10:25:39.050Z,12960.8457
2023-05-02T10:26:40.474Z,12959.4619
2023-05-02T10:27:41.876Z,12959.5381
2023-05-02T10:28:43.407Z,12961.5381
2023-05-02T10:29:44.701Z,12960.0000
2023-05-02T10:30:46.134Z,12960.6924
2023-05-02T10:31:47.603Z,12960.7695
2023-05-02T10:32:49.053Z,12958.7695
2023-05-02T10:33:50.424Z,12958.4619
2023-05-02T10:34:51.831Z,12965.5381
2023-05-02T10:35:53.240Z,12959.6924
2023-05-02T10:36:54.675Z,12963.3076
2023-05-02T10:37:56.105Z,12963.9229
2023-05-02T10:38:57.589Z,12969.2305
2023-05-02T10:39:58.984Z,12972.1543
2023-05-02T10:41:00.337Z,12967.6924
2023-05-02T10:42:01.759Z,12965.5381
2023-05-02T10:43:03.187Z,12966.2305
2023-05-02T10:44:04.676Z,12971.5381
2023-05-02T10:45:06.025Z,12972.1543
2023-05-02T10:46:07.478Z,12971.6924
2023-05-02T10:47:08.834Z,12969.4619
2023-05-02T10:48:10.402Z,12971.8457
2023-05-02T10:49:11.713Z,12973.0771
2023-05-02T10:50:13.167Z,12973.9229
2023-05-02T10:51:14.554Z,12974.3848
2023-05-02T10:52:15.888Z,12973.6152
2023-05-02T10:53:17.395Z,12977.0000
2023-05-02T10:54:18.858Z,12978.6152
2023-05-02T10:55:20.214Z,12981.9229
2023-05-02T10:56:21.679Z,12974.4619
2023-05-02T10:57:23.029Z,12976.0771
2023-05-02T10:58:24.559Z,12977.6152
2023-05-02T10:59:25.924Z,12976.6152
2023-05-02T11:00:27.398Z,12978.6152
2023-05-02T11:01:28.858Z,12976.9229
2023-05-02T11:02:30.227Z,12977.7695
2023-05-02T11:03:31.620Z,12980.6924
2023-05-02T11:04:33.056Z,12979.4619
2023-05-02T11:05:34.427Z,12981.8457
2023-05-02T11:06:35.908Z,12980.8457
2023-05-02T11:07:37.232Z,12978.0771
2023-05-02T11:08:38.617Z,12980.4619
2023-05-02T11:09:40.128Z,12983.0000
2023-05-02T11:10:41.575Z,12980.0000
2023-05-02T11:11:43.299Z,12984.1543
2023-05-02T11:12:44.309Z,12983.6152
2023-05-02T11:13:45.778Z,12982.2305
2023-05-02T11:14:47.314Z,12985.3848
2023-05-02T11:15:48.678Z,12989.3076
2023-05-02T11:16:50.085Z,12983.8457
2023-05-02T11:17:51.448Z,12983.9229
2023-05-02T11:18:52.875Z,12984.6924
2023-05-02T11:19:54.318Z,12986.8457
2023-05-02T11:20:55.765Z,12986.1543
2023-05-02T11:21:57.119Z,12993.2305